Time;durP1;ratioP1;P1;durP2;ratioP2;P2;SDS_P1;SDS_P2;PMS_P1;PMS_P2;Temp;Humidity;BMP_temperature;BMP_pressure;BME280_temperature;BME280_humidity;BME280_pressure;Samples;Min_cycle;Max_cycle;Signal;HPM_P1;HPM_P2
2023/06/19 00:00:33;;;;;;;;;;;;;;;12.36;83.31;102036.91;5072485;28;19996;-64
2023/06/19 00:02:59;;;;;;;;;;;;;;;12.35;83.84;102032.56;5072773;28;19969;-64
2023/06/19 00:05:24;;;;;;;;;;;;;;;12.35;82.78;102040.56;5072919;28;20062;-64
2023/06/19 00:07:50;;;;;;;;;;;;;;;12.34;83.27;102032.72;5072517;28;19933;-66
2023/06/19 00:10:16;;;;;;;;;;;;;;;12.34;83.28;102038.06;5072607;28;20307;-63
2023/06/19 00:12:41;;;;;;;;;;;;;;;12.33;83.11;102041.72;5072670;28;19925;-64
2023/06/19 00:15:09;;;;;;;;;;;;;;;12.33;83.38;102036.38;5072531;28;19928;-64
2023/06/19 00:17:37;;;;;;;;;;;;;;;12.29;83.56;102033.16;5072697;28;19943;-63
2023/06/19 00:20:02;;;;;;;;;;;;;;;12.29;83.87;102034.97;5072895;28;19920;-65
2023/06/19 00:22:28;;;;;;;;;;;;;;;12.29;84.72;102035.81;5072668;28;20028;-64
2023/06/19 00:24:53;;;;;;;;;;;;;;;12.31;83.97;102033.84;5072734;28;19929;-63
2023/06/19 00:27:18;;;;;;;;;;;;;;;12.32;83.77;102029.34;5072239;28;20385;-63
2023/06/19 00:29:44;;;;;;;;;;;;;;;12.29;85.09;102027.81;5054350;28;19920;-64
2023/06/19 00:32:09;;;;;;;;;;;;;;;12.28;84.95;102027.94;5072266;28;19921;-65
2023/06/19 00:34:36;;;;;;;;;;;;;;;12.24;84.34;102024.72;5073052;28;19927;-67
2023/06/19 00:37:02;;;;;;;;;;;;;;;12.21;85.88;102021.50;5054723;28;19924;-66
2023/06/19 00:39:27;;;;;;;;;;;;;;;12.19;85.52;102026.13;5072520;28;19927;-63
2023/06/19 00:41:53;;;;;;;;;;;;;;;12.16;86.86;102021.94;5072271;28;20260;-64
2023/06/19 00:44:18;;;;;;;;;;;;;;;12.15;87.40;102024.75;5072283;28;20376;-65
2023/06/19 00:46:44;;;;;;;;;;;;;;;12.12;88.05;102017.81;5072435;28;20307;-65
2023/06/19 00:49:10;;;;;;;;;;;;;;;12.14;86.71;102021.19;5072600;28;20364;-64
2023/06/19 00:51:35;;;;;;;;;;;;;;;12.18;86.40;102027.13;5072341;28;19921;-64
2023/06/19 00:54:01;;;;;;;;;;;;;;;12.18;88.18;102027.13;5072228;28;19920;-63
2023/06/19 00:56:26;;;;;;;;;;;;;;;12.18;87.15;102022.63;5054771;28;20387;-63
2023/06/19 00:58:53;;;;;;;;;;;;;;;12.21;87.73;102026.84;5072705;28;19956;-64
2023/06/19 01:01:19;;;;;;;;;;;;;;;12.19;88.80;102024.31;5057521;28;19956;-64
2023/06/19 01:03:44;;;;;;;;;;;;;;;12.21;87.46;102026.84;5073951;28;19924;-63
2023/06/19 01:06:14;;;;;;;;;;;;;;;12.21;89.43;102026.84;5072328;28;19921;-64
2023/06/19 01:09:05;;;;;;;;;;;;;;;12.22;88.70;102020.50;5071898;28;19921;-64
2023/06/19 01:11:38;;;;;;;;;;;;;;;12.22;89.02;102023.19;5050009;28;20307;-65
2023/06/19 01:14:10;;;;;;;;;;;;;;;12.22;88.01;102017.84;5071989;28;20003;-66
2023/06/19 01:16:36;;;;;;;;;;;;;;;12.23;88.02;102020.38;5071874;28;19921;-65
2023/06/19 01:19:02;;;;;;;;;;;;;;;12.25;89.62;102020.22;5072093;28;19920;-66
2023/06/19 01:21:28;;;;;;;;;;;;;;;12.27;89.73;102019.09;5073916;28;20031;-64
2023/06/19 01:23:53;;;;;;;;;;;;;;;12.29;89.96;102024.28;5056404;28;19960;-64
2023/06/19 01:26:20;;;;;;;;;;;;;;;12.29;90.12;102027.81;5073964;28;19920;-64
2023/06/19 01:28:45;;;;;;;;;;;;;;;12.33;89.15;102025.69;5055190;28;19920;-65
2023/06/19 01:31:24;;;;;;;;;;;;;;;12.33;91.88;102028.34;5073102;28;19920;-63
2023/06/19 01:33:50;;;;;;;;;;;;;;;12.30;92.32;102018.81;5072307;28;19924;-64
2023/06/19 01:36:17;;;;;;;;;;;;;;;12.31;89.64;102028.50;5072006;28;19927;-63
2023/06/19 01:38:44;;;;;;;;;;;;;;;12.32;91.54;102021.31;5074015;28;19924;-65
2023/06/19 01:41:09;;;;;;;;;;;;;;;12.32;92.20;102024.84;5075500;28;20026;-63
2023/06/19 01:43:35;;;;;;;;;;;;;;;12.35;91.08;102023.72;5075849;28;20379;-63
2023/06/19 01:46:00;;;;;;;;;;;;;;;12.35;91.56;102015.69;5075300;28;19920;-65
2023/06/19 01:48:26;;;;;;;;;;;;;;;12.37;92.80;102019.06;5075256;28;19920;-65
2023/06/19 01:50:51;;;;;;;;;;;;;;;12.38;93.02;102008.22;5076439;28;19921;-64
2023/06/19 01:53:17;;;;;;;;;;;;;;;12.41;90.99;102015.13;5075930;28;20402;-62
2023/06/19 01:55:42;;;;;;;;;;;;;;;12.45;91.12;102010.34;5075411;28;19920;-64
2023/06/19 01:58:08;;;;;;;;;;;;;;;12.50;89.67;102014.28;5075427;28;20446;-64
2023/06/19 02:00:37;;;;;;;;;;;;;;;12.53;90.65;102019.31;5075217;28;19957;-63
2023/06/19 02:03:03;;;;;;;;;;;;;;;12.55;89.54;102014.66;5074775;28;19920;-65
2023/06/19 02:05:29;;;;;;;;;;;;;;;12.58;90.02;102021.56;5075000;28;19926;-64
2023/06/19 02:07:54;;;;;;;;;;;;;;;12.60;90.59;102020.41;5074737;28;19920;-67
2023/06/19 02:10:21;;;;;;;;;;;;;;;12.63;90.83;102022.81;5074730;28;19936;-63
2023/06/19 02:12:47;;;;;;;;;;;;;;;12.67;90.14;102021.50;5074833;28;19947;-63
2023/06/19 02:15:12;;;;;;;;;;;;;;;12.69;91.28;102024.88;5056846;28;19927;-65
2023/06/19 02:17:37;;;;;;;;;;;;;;;12.71;91.93;102030.06;5074672;28;19971;-64
2023/06/19 02:20:08;;;;;;;;;;;;;;;12.76;90.27;102021.66;5074646;28;20387;-67
2023/06/19 02:22:34;;;;;;;;;;;;;;;12.76;91.64;102022.50;5074591;28;20264;-64
2023/06/19 02:24:59;;;;;;;;;;;;;;;12.76;91.66;102022.50;5074637;28;20023;-65
2023/06/19 02:27:24;;;;;;;;;;;;;;;12.80;91.43;102025.72;5074917;28;19976;-64
2023/06/19 02:29:50;;;;;;;;;;;;;;;12.82;90.97;102021.06;5074646;28;19930;-66
2023/06/19 02:32:15;;;;;;;;;;;;;;;12.88;90.89;102025.81;5056392;28;19921;-64
2023/06/19 02:34:40;;;;;;;;;;;;;;;12.90;91.30;102023.84;5074191;28;19966;-65
2023/06/19 02:37:06;;;;;;;;;;;;;;;12.96;90.92;102025.91;5056619;28;20287;-65
2023/06/19 02:39:32;;;;;;;;;;;;;;;13.04;89.43;102020.69;5074520;28;19977;-62
2023/06/19 02:41:57;;;;;;;;;;;;;;;13.11;89.73;102019.09;5058339;28;20387;-64
2023/06/19 02:44:22;;;;;;;;;;;;;;;13.18;89.31;102027.41;5077083;28;19920;-64
2023/06/19 02:46:47;;;;;;;;;;;;;;;13.23;88.80;102020.59;5076586;28;19920;-65
2023/06/19 02:49:13;;;;;;;;;;;;;;;13.39;88.40;102029.81;5073316;28;19920;-65
2023/06/19 02:51:38;;;;;;;;;;;;;;;13.73;87.45;102024.66;5073985;28;21125;-64
2023/06/19 02:54:03;;;;;;;;;;;;;;;14.27;85.17;102020.94;5074255;28;19921;-66
2023/06/19 02:56:29;;;;;;;;;;;;;;;15.27;80.77;102019.50;5074271;28;20021;-68
2023/06/19 02:58:54;;;;;;;;;;;;;;;16.70;73.92;102019.97;5074505;28;19920;-63
2023/06/19 03:01:19;;;;;;;;;;;;;;;17.91;70.25;102017.69;5074441;28;19924;-66
2023/06/19 03:03:46;;;;;;;;;;;;;;;18.73;66.32;102020.50;5074322;28;19920;-65
2023/06/19 03:06:13;;;;;;;;;;;;;;;19.22;64.24;102011.81;5077000;28;19920;-65
2023/06/19 03:08:38;;;;;;;;;;;;;;;19.78;61.13;102018.28;5079426;28;19921;-64
2023/06/19 03:11:05;;;;;;;;;;;;;;;19.97;59.62;102019.53;5073538;28;19968;-66
2023/06/19 03:13:49;;;;;;;;;;;;;;;20.36;58.53;102013.59;5073657;28;20395;-63
2023/06/19 03:16:14;;;;;;;;;;;;;;;20.79;57.57;102014.31;5073488;28;19920;-65
2023/06/19 03:18:40;;;;;;;;;;;;;;;21.29;56.59;101999.59;5073551;28;19984;-65
2023/06/19 03:21:05;;;;;;;;;;;;;;;21.39;51.49;102009.19;5073429;28;19927;-67
2023/06/19 03:23:30;;;;;;;;;;;;;;;21.77;52.36;102002.22;5073431;28;19928;-64
2023/06/19 03:25:57;;;;;;;;;;;;;;;22.23;50.28;102007.66;5073238;28;19920;-63
2023/06/19 03:28:23;;;;;;;;;;;;;;;22.68;48.06;102007.00;5074166;28;19928;-65
2023/06/19 03:30:48;;;;;;;;;;;;;;;22.89;47.31;102012.22;5076552;28;20303;-64
2023/06/19 03:33:13;;;;;;;;;;;;;;;23.39;47.92;102001.53;5077501;28;19920;-66
2023/06/19 03:35:39;;;;;;;;;;;;;;;23.94;46.55;101999.09;5078436;28;19966;-64
2023/06/19 03:38:04;;;;;;;;;;;;;;;24.30;45.26;102004.72;5078146;28;19921;-64
2023/06/19 03:40:29;;;;;;;;;;;;;;;23.65;44.98;102001.41;5077802;28;19929;-66
2023/06/19 03:42:54;;;;;;;;;;;;;;;22.67;46.23;102003.44;5077759;28;19920;-64
2023/06/19 03:45:20;;;;;;;;;;;;;;;22.85;46.48;102002.81;5077411;28;19927;-64
2023/06/19 03:47:45;;;;;;;;;;;;;;;23.66;45.30;102000.34;5078612;28;19924;-65
2023/06/19 03:50:10;;;;;;;;;;;;;;;24.35;39.14;102004.88;5075198;28;20019;-64
2023/06/19 03:52:36;;;;;;;;;;;;;;;24.50;39.28;101999.06;5072871;28;19920;-64
2023/06/19 03:55:02;;;;;;;;;;;;;;;24.74;39.01;102008.22;5073039;28;19920;-64
2023/06/19 03:57:29;;;;;;;;;;;;;;;24.96;37.99;102001.28;5072858;28;20023;-65
2023/06/19 03:59:56;;;;;;;;;;;;;;;25.18;38.33;102009.00;5072788;28;20018;-64
2023/06/19 04:02:21;;;;;;;;;;;;;;;25.21;36.81;101998.47;5054492;28;20374;-65
2023/06/19 04:04:47;;;;;;;;;;;;;;;25.31;38.34;101989.75;5072954;28;19956;-64
2023/06/19 04:07:13;;;;;;;;;;;;;;;25.28;35.23;101996.50;5072430;28;20336;-66
2023/06/19 04:09:40;;;;;;;;;;;;;;;25.39;37.35;101999.47;5054635;28;20280;-65
2023/06/19 04:12:05;;;;;;;;;;;;;;;25.60;35.14;101994.34;5072601;28;19947;-66
2023/06/19 04:14:31;;;;;;;;;;;;;;;25.35;34.83;101958.22;5072448;28;20387;-66
2023/06/19 04:16:56;;;;;;;;;;;;;;;25.42;35.54;101986.22;5072891;28;20375;-65
2023/06/19 04:19:21;;;;;;;;;;;;;;;25.37;34.72;101993.44;5072313;28;19927;-65
2023/06/19 04:21:47;;;;;;;;;;;;;;;25.54;36.31;101989.00;5072751;28;19928;-65
2023/06/19 04:24:12;;;;;;;;;;;;;;;25.73;34.20;101985.16;5072395;28;19920;-63
2023/06/19 04:26:37;;;;;;;;;;;;;;;25.45;34.71;101947.59;5072322;28;19928;-65
2023/06/19 04:29:03;;;;;;;;;;;;;;;25.49;35.60;101986.16;5072769;28;19928;-68
2023/06/19 04:31:28;;;;;;;;;;;;;;;25.72;34.08;101986.22;5055068;28;19920;-65
2023/06/19 04:33:56;;;;;;;;;;;;;;;25.77;35.36;101980.09;5072398;28;19921;-66
2023/06/19 04:36:21;;;;;;;;;;;;;;;26.07;33.84;101977.28;5054850;28;19974;-66
2023/06/19 04:38:47;;;;;;;;;;;;;;;25.72;34.07;101980.75;5054679;28;19920;-69
2023/06/19 04:41:12;;;;;;;;;;;;;;;25.48;35.17;101979.03;5072374;28;19924;-65
2023/06/19 04:43:41;;;;;;;;;;;;;;;25.87;34.97;101974.88;5072210;28;20011;-64
2023/06/19 04:46:06;;;;;;;;;;;;;;;26.31;33.21;101986.28;5072253;28;20248;-66
2023/06/19 04:48:32;;;;;;;;;;;;;;;26.44;32.84;101983.38;5054414;28;19920;-66
2023/06/19 04:50:57;;;;;;;;;;;;;;;26.30;33.39;101982.72;5054355;28;19967;-63
2023/06/19 04:53:22;;;;;;;;;;;;;;;26.36;34.02;101981.84;5072334;28;19921;-66
2023/06/19 04:55:49;;;;;;;;;;;;;;;26.46;32.76;101981.22;5072534;28;19920;-66
2023/06/19 04:58:14;;;;;;;;;;;;;;;26.19;33.20;101981.66;5072078;28;19921;-65
2023/06/19 05:00:40;;;;;;;;;;;;;;;25.87;32.39;101980.34;5071872;28;20406;-64
2023/06/19 05:03:05;;;;;;;;;;;;;;;26.00;31.90;101977.38;5072339;28;19927;-65
2023/06/19 05:05:30;;;;;;;;;;;;;;;26.10;32.23;101980.38;5072123;28;19921;-66
2023/06/19 05:07:56;;;;;;;;;;;;;;;26.00;32.13;101977.38;5071993;28;19927;-66
2023/06/19 05:10:21;;;;;;;;;;;;;;;25.92;32.25;101975.00;5072903;28;19985;-66
2023/06/19 05:12:46;;;;;;;;;;;;;;;25.84;32.64;101972.63;5059314;28;19931;-65
2023/06/19 05:15:12;;;;;;;;;;;;;;;25.55;32.90;101977.84;5076794;28;19921;-67
2023/06/19 05:17:38;;;;;;;;;;;;;;;25.11;33.19;101951.00;5077043;28;19920;-67
2023/06/19 05:20:04;;;;;;;;;;;;;;;24.81;33.71;101972.72;5076851;28;19921;-65
2023/06/19 05:22:31;;;;;;;;;;;;;;;24.52;34.72;101971.59;5076585;28;19932;-66
2023/06/19 05:24:56;;;;;;;;;;;;;;;24.17;35.22;101965.84;5076243;28;20050;-65
2023/06/19 05:27:22;;;;;;;;;;;;;;;23.47;36.54;101964.06;5075611;28;19975;-65
2023/06/19 05:29:47;;;;;;;;;;;;;;;22.30;37.14;101969.69;5075528;28;20023;-66
2023/06/19 05:32:12;;;;;;;;;;;;;;;21.15;39.10;101964.50;5075565;28;20359;-65
2023/06/19 05:34:38;;;;;;;;;;;;;;;20.50;40.61;101963.97;5075603;28;19920;-68
2023/06/19 05:37:03;;;;;;;;;;;;;;;20.11;41.59;101956.38;5075484;28;20023;-64
2023/06/19 05:39:29;;;;;;;;;;;;;;;19.79;41.08;101955.91;5075303;28;19920;-67
2023/06/19 05:41:54;;;;;;;;;;;;;;;19.70;42.02;101956.25;5075307;28;20449;-62
2023/06/19 05:44:19;;;;;;;;;;;;;;;19.73;41.76;101955.88;5075249;28;19928;-65
2023/06/19 05:46:45;;;;;;;;;;;;;;;19.69;40.51;101962.69;5075139;28;19966;-65
2023/06/19 05:49:10;;;;;;;;;;;;;;;19.58;39.15;101957.78;5075554;28;20043;-66
2023/06/19 05:51:35;;;;;;;;;;;;;;;19.62;41.04;101959.06;5057450;28;19927;-65
2023/06/19 05:54:03;;;;;;;;;;;;;;;19.72;41.19;101965.00;5057205;28;19928;-65
2023/06/19 05:56:32;;;;;;;;;;;;;;;19.77;40.24;101960.69;5075192;28;19924;-67
2023/06/19 05:58:58;;;;;;;;;;;;;;;19.83;41.40;101972.59;5074995;28;20349;-67
2023/06/19 06:01:24;;;;;;;;;;;;;;;19.87;41.10;101970.31;5075113;28;19920;-66
2023/06/19 06:03:49;;;;;;;;;;;;;;;19.86;40.26;101964.09;5075046;28;19927;-65
2023/06/19 06:06:14;;;;;;;;;;;;;;;19.85;40.24;101973.22;5075139;28;19960;-66
2023/06/19 06:08:40;;;;;;;;;;;;;;;19.78;37.60;101961.53;5074851;28;20307;-66
2023/06/19 06:11:05;;;;;;;;;;;;;;;19.70;36.39;101958.97;5074902;28;19924;-66
2023/06/19 06:13:31;;;;;;;;;;;;;;;19.70;36.02;101964.38;5074614;28;20422;-66
2023/06/19 06:15:56;;;;;;;;;;;;;;;19.76;36.67;101959.00;5074570;28;19920;-65
2023/06/19 06:18:21;;;;;;;;;;;;;;;19.78;36.32;101966.94;5040385;28;20015;-65
2023/06/19 06:20:47;;;;;;;;;;;;;;;19.81;36.13;101969.25;5057059;28;20012;-65
2023/06/19 06:23:12;;;;;;;;;;;;;;;19.87;33.24;101963.06;5056323;28;19928;-66
2023/06/19 06:25:38;;;;;;;;;;;;;;;19.92;34.42;101974.13;5056619;28;19921;-66
2023/06/19 06:28:03;;;;;;;;;;;;;;;20.00;35.03;101960.47;5074591;28;20379;-67
2023/06/19 06:30:29;;;;;;;;;;;;;;;20.01;30.10;101972.97;5075049;28;19921;-67
2023/06/19 06:32:54;;;;;;;;;;;;;;;20.00;31.68;101965.88;5057130;28;19924;-67
2023/06/19 06:35:19;;;;;;;;;;;;;;;20.09;32.67;101967.41;5074595;28;19925;-65
2023/06/19 06:37:46;;;;;;;;;;;;;;;20.21;34.68;101966.84;5056895;28;19943;-66
2023/06/19 06:40:11;;;;;;;;;;;;;;;20.15;32.74;101965.78;5076603;28;19924;-67
2023/06/19 06:42:37;;;;;;;;;;;;;;;20.18;33.21;101956.44;5076615;28;19931;-66
2023/06/19 06:45:03;;;;;;;;;;;;;;;20.23;33.73;101952.09;5059110;28;19982;-65
2023/06/19 06:47:29;;;;;;;;;;;;;;;20.27;32.70;101958.81;5042671;28;19927;-68
2023/06/19 06:49:54;;;;;;;;;;;;;;;20.22;32.09;101953.13;5076354;28;20396;-68
2023/06/19 06:52:20;;;;;;;;;;;;;;;20.11;31.73;101951.81;5074084;28;20398;-66
2023/06/19 06:54:45;;;;;;;;;;;;;;;20.12;33.90;101955.34;5073930;28;19921;-67
2023/06/19 06:57:10;;;;;;;;;;;;;;;20.01;32.77;101951.34;5073693;28;19974;-67
2023/06/19 06:59:36;;;;;;;;;;;;;;;19.96;32.93;101958.38;5055750;28;20001;-65
2023/06/19 07:02:01;;;;;;;;;;;;;;;19.98;33.89;101962.53;5056201;28;19966;-67
2023/06/19 07:04:26;;;;;;;;;;;;;;;20.00;33.37;101955.06;5073979;28;19926;-67
2023/06/19 07:06:52;;;;;;;;;;;;;;;20.08;33.24;101952.22;5074543;28;19920;-67
2023/06/19 07:09:17;;;;;;;;;;;;;;;20.21;33.30;101950.63;5074006;28;19920;-67
2023/06/19 07:11:43;;;;;;;;;;;;;;;20.35;33.93;101955.09;5073496;28;20426;-66
2023/06/19 07:14:09;;;;;;;;;;;;;;;20.40;34.52;101948.09;5074071;28;19924;-64
2023/06/19 07:16:34;;;;;;;;;;;;;;;20.34;34.88;101950.72;5040911;28;19942;-67
2023/06/19 07:18:59;;;;;;;;;;;;;;;20.24;35.40;101950.22;5074710;28;19924;-69
2023/06/19 07:21:26;;;;;;;;;;;;;;;20.20;36.10;101948.94;5057529;28;19921;-65
2023/06/19 07:23:52;;;;;;;;;;;;;;;20.31;35.57;101940.31;5075105;28;19920;-66
2023/06/19 07:26:17;;;;;;;;;;;;;;;20.41;34.98;101940.81;5074297;28;19927;-65
2023/06/19 07:28:42;;;;;;;;;;;;;;;20.41;35.86;101940.81;5055104;28;19928;-64
2023/06/19 07:31:08;;;;;;;;;;;;;;;20.26;35.30;101949.03;5073147;28;19928;-65
2023/06/19 07:33:33;;;;;;;;;;;;;;;20.18;34.38;101940.19;5073265;28;19971;-68
2023/06/19 07:35:58;;;;;;;;;;;;;;;20.18;35.19;101934.78;5055563;28;19927;-64
2023/06/19 07:38:24;;;;;;;;;;;;;;;20.14;35.61;101934.34;5073779;28;20445;-64
2023/06/19 07:40:49;;;;;;;;;;;;;;;20.15;35.04;101935.19;5055238;28;19924;-66
2023/06/19 07:43:15;;;;;;;;;;;;;;;20.06;35.76;101940.75;5072915;28;19931;-65
2023/06/19 07:45:40;;;;;;;;;;;;;;;20.10;35.95;101933.91;5073148;28;19944;-65
2023/06/19 07:48:05;;;;;;;;;;;;;;;20.17;35.82;101931.25;5073135;28;19920;-64
2023/06/19 07:50:32;;;;;;;;;;;;;;;20.17;35.37;101938.53;5073039;28;19921;-65
2023/06/19 07:52:57;;;;;;;;;;;;;;;20.16;34.11;101931.44;5074369;28;20433;-65
2023/06/19 07:55:22;;;;;;;;;;;;;;;20.25;34.65;101935.69;5073010;28;20019;-62
2023/06/19 07:57:48;;;;;;;;;;;;;;;20.33;32.79;101930.13;5054738;28;20705;-65
2023/06/19 08:00:13;;;;;;;;;;;;;;;20.35;32.26;101933.47;5072832;28;19921;-63
2023/06/19 08:02:39;;;;;;;;;;;;;;;20.31;33.05;101935.72;5073153;28;20402;-68
2023/06/19 08:05:04;;;;;;;;;;;;;;;20.34;33.39;101931.78;5073184;28;19958;-68
2023/06/19 08:07:30;;;;;;;;;;;;;;;20.31;31.20;101929.50;5073320;28;19924;-65
2023/06/19 08:09:55;;;;;;;;;;;;;;;20.37;32.01;101928.69;5072393;28;19946;-65
2023/06/19 08:12:22;;;;;;;;;;;;;;;20.38;31.51;101930.34;5072582;28;20387;-66
2023/06/19 08:14:47;;;;;;;;;;;;;;;20.39;32.24;101926.63;5054698;28;19982;-66
2023/06/19 08:17:13;;;;;;;;;;;;;;;20.41;32.89;101936.25;5072923;28;19955;-66
2023/06/19 08:19:39;;;;;;;;;;;;;;;20.46;32.49;101932.94;5072575;28;20414;-66
2023/06/19 08:22:05;;;;;;;;;;;;;;;20.45;31.17;101925.84;5073821;28;20019;-64
2023/06/19 08:24:30;;;;;;;;;;;;;;;20.49;31.34;101927.13;5072725;28;20426;-66
2023/06/19 08:26:55;;;;;;;;;;;;;;;20.49;31.02;101916.28;5054353;28;19959;-64
2023/06/19 08:29:21;;;;;;;;;;;;;;;20.46;31.53;101919.41;5072501;28;20019;-65
2023/06/19 08:31:46;;;;;;;;;;;;;;;20.50;31.92;101917.13;5072448;28;20018;-64
2023/06/19 08:34:11;;;;;;;;;;;;;;;20.51;31.72;101918.78;5072452;28;19963;-65
2023/06/19 08:36:36;;;;;;;;;;;;;;;20.51;31.47;101916.94;5072277;28;19955;-69
2023/06/19 08:39:02;;;;;;;;;;;;;;;20.53;30.35;101920.28;5072539;28;20019;-65
2023/06/19 08:41:28;;;;;;;;;;;;;;;20.54;30.56;101919.25;5072112;28;19921;-64
2023/06/19 08:43:54;;;;;;;;;;;;;;;20.60;31.41;101918.44;5072309;28;19928;-64
2023/06/19 08:46:23;;;;;;;;;;;;;;;20.69;31.89;101917.22;5071526;28;20222;-64
2023/06/19 08:48:49;;;;;;;;;;;;;;;20.81;31.52;101912.06;5075113;28;20015;-65
2023/06/19 08:51:15;;;;;;;;;;;;;;;20.86;32.12;101912.31;5076266;28;19975;-65
2023/06/19 08:53:45;;;;;;;;;;;;;;;20.84;32.08;101914.41;5076740;28;19963;-64
2023/06/19 08:56:10;;;;;;;;;;;;;;;20.86;32.22;101916.91;5076062;28;19932;-65
2023/06/19 08:58:36;;;;;;;;;;;;;;;20.83;31.57;101911.91;5076489;28;19920;-65
2023/06/19 09:01:01;;;;;;;;;;;;;;;20.89;31.98;101917.31;5076005;28;19959;-66
2023/06/19 09:03:27;;;;;;;;;;;;;;;20.92;31.16;101916.09;5075886;28;20012;-65
2023/06/19 09:05:52;;;;;;;;;;;;;;;20.90;31.44;101907.34;5041561;28;19973;-66
2023/06/19 09:08:18;;;;;;;;;;;;;;;20.89;31.06;101901.09;5058545;28;19934;-65
2023/06/19 09:11:00;;;;;;;;;;;;;;;20.91;31.35;101903.59;5076014;28;19924;-67
2023/06/19 09:13:26;;;;;;;;;;;;;;;21.00;31.28;101907.78;5058114;28;19972;-65
2023/06/19 09:16:02;;;;;;;;;;;;;;;21.05;31.18;101905.28;5076087;28;19924;-68
2023/06/19 09:18:29;;;;;;;;;;;;;;;21.02;31.39;101906.53;5075723;28;19927;-67
2023/06/19 09:20:54;;;;;;;;;;;;;;;21.01;31.03;101901.31;5075774;28;19920;-66
2023/06/19 09:23:20;;;;;;;;;;;;;;;20.98;30.46;101901.72;5058057;28;19931;-67
2023/06/19 09:25:45;;;;;;;;;;;;;;;21.00;31.13;101896.94;5075931;28;19920;-63
2023/06/19 09:28:21;;;;;;;;;;;;;;;21.06;30.79;101889.88;5057861;28;19920;-66
2023/06/19 09:31:00;;;;;;;;;;;;;;;21.07;29.86;101886.13;5075563;28;20003;-66
2023/06/19 09:33:29;;;;;;;;;;;;;;;21.12;29.74;101889.06;5075431;28;19962;-64
2023/06/19 09:35:55;;;;;;;;;;;;;;;21.09;30.08;101878.63;5075279;28;19920;-67
2023/06/19 09:38:24;;;;;;;;;;;;;;;21.09;31.68;101879.44;5057498;28;20020;-64
2023/06/19 09:40:50;;;;;;;;;;;;;;;21.21;32.42;101877.81;5075368;28;19920;-64
2023/06/19 09:43:19;;;;;;;;;;;;;;;21.32;32.27;101885.38;5057622;28;19920;-65
2023/06/19 09:45:48;;;;;;;;;;;;;;;21.39;31.50;101881.81;5075082;28;20434;-63
2023/06/19 09:48:14;;;;;;;;;;;;;;;21.44;31.65;101871.22;5074997;28;19920;-65
2023/06/19 09:50:41;;;;;;;;;;;;;;;21.48;31.79;101872.47;5075513;28;20383;-63
2023/06/19 09:53:07;;;;;;;;;;;;;;;21.53;30.87;101870.81;5075160;28;19955;-65
2023/06/19 09:55:33;;;;;;;;;;;;;;;21.56;30.94;101870.38;5057436;28;19920;-65
2023/06/19 09:57:59;;;;;;;;;;;;;;;21.62;31.00;101879.56;5074521;28;19920;-66
2023/06/19 10:00:30;;;;;;;;;;;;;;;21.57;30.57;101882.06;5074915;28;20043;-66
2023/06/19 10:02:58;;;;;;;;;;;;;;;21.56;31.10;101875.81;5074901;28;19943;-65
2023/06/19 10:05:30;;;;;;;;;;;;;;;21.54;31.12;101871.63;5075897;28;20027;-66
2023/06/19 10:07:59;;;;;;;;;;;;;;;21.51;30.95;101872.88;5075660;28;20019;-66
2023/06/19 10:10:26;;;;;;;;;;;;;;;21.54;30.88;101868.94;5075705;28;19929;-66
2023/06/19 10:12:55;;;;;;;;;;;;;;;21.61;30.00;101867.88;5074766;28;19939;-66
2023/06/19 10:15:22;;;;;;;;;;;;;;;21.56;29.98;101869.56;5057191;28;19932;-65
2023/06/19 10:17:52;;;;;;;;;;;;;;;21.62;30.83;101858.69;5075077;28;19927;-67
2023/06/19 10:20:25;;;;;;;;;;;;;;;21.62;31.16;101856.00;5074743;28;19920;-64
2023/06/19 10:23:18;;;;;;;;;;;;;;;21.64;29.99;101855.78;5074836;28;19925;-65
2023/06/19 10:25:44;;;;;;;;;;;;;;;21.57;31.14;101855.78;5037189;28;19943;-66
2023/06/19 10:28:16;;;;;;;;;;;;;;;21.58;31.92;101856.63;5075469;28;19946;-66
2023/06/19 10:30:42;;;;;;;;;;;;;;;21.62;33.21;101847.03;5075895;28;19962;-65
2023/06/19 10:33:07;;;;;;;;;;;;;;;21.71;32.88;101856.63;5057699;28;19998;-64
2023/06/19 10:35:40;;;;;;;;;;;;;;;21.73;32.69;101857.25;5075503;28;19927;-64
2023/06/19 10:38:05;;;;;;;;;;;;;;;21.69;32.12;101847.88;5058226;28;19921;-64
2023/06/19 10:40:30;;;;;;;;;;;;;;;21.70;32.64;101849.53;5076971;28;20291;-64
2023/06/19 10:42:56;;;;;;;;;;;;;;;21.75;31.85;101846.19;5075826;28;19926;-67
2023/06/19 10:45:28;;;;;;;;;;;;;;;21.75;32.26;101841.63;5057182;28;19921;-64
2023/06/19 10:47:54;;;;;;;;;;;;;;;21.80;32.53;101833.66;5057745;28;20030;-65
2023/06/19 10:50:19;;;;;;;;;;;;;;;21.90;32.90;101823.22;5074964;28;19967;-68
2023/06/19 10:52:45;;;;;;;;;;;;;;;22.02;33.00;101831.56;5073979;28;19965;-66
2023/06/19 10:55:14;;;;;;;;;;;;;;;22.04;32.43;101825.94;5074590;28;19924;-64
2023/06/19 10:57:44;;;;;;;;;;;;;;;22.12;32.92;101831.97;5074731;28;19921;-66
2023/06/19 11:00:12;;;;;;;;;;;;;;;22.23;33.19;101830.47;5073994;28;19927;-65
2023/06/19 11:02:43;;;;;;;;;;;;;;;22.31;32.26;101829.41;5073910;28;20372;-65
2023/06/19 11:05:09;;;;;;;;;;;;;;;22.27;32.31;101823.59;5055788;28;20416;-65
2023/06/19 11:07:35;;;;;;;;;;;;;;;22.22;32.61;101821.50;5073861;28;19921;-65
2023/06/19 11:10:00;;;;;;;;;;;;;;;22.26;32.58;101816.47;5073422;28;19924;-67
2023/06/19 11:12:26;;;;;;;;;;;;;;;22.32;32.97;101815.63;5074722;28;19979;-64
2023/06/19 11:14:51;;;;;;;;;;;;;;;22.37;32.69;101804.97;5073644;28;19920;-64
2023/06/19 11:17:23;;;;;;;;;;;;;;;22.44;32.92;101807.63;5073490;28;20003;-65
2023/06/19 11:19:49;;;;;;;;;;;;;;;22.50;33.04;101807.59;5073681;28;19928;-66
2023/06/19 11:22:14;;;;;;;;;;;;;;;22.47;32.11;101815.34;5073758;28;19921;-64
2023/06/19 11:24:46;;;;;;;;;;;;;;;22.38;32.14;101803.06;5073765;28;20335;-64
2023/06/19 11:27:24;;;;;;;;;;;;;;;22.38;32.48;101798.47;5055902;28;19974;-62
2023/06/19 11:29:54;;;;;;;;;;;;;;;22.38;32.72;101793.06;5073330;28;19927;-66
2023/06/19 11:32:22;;;;;;;;;;;;;;;22.37;32.83;101796.81;5073405;28;19921;-65
2023/06/19 11:34:48;;;;;;;;;;;;;;;22.36;32.80;101795.16;5073264;28;20379;-64
2023/06/19 11:37:21;;;;;;;;;;;;;;;22.37;32.73;101791.38;5074639;28;19921;-67
2023/06/19 11:39:47;;;;;;;;;;;;;;;22.35;32.68;101793.50;5075618;28;20035;-65
2023/06/19 11:42:13;;;;;;;;;;;;;;;22.41;32.96;101787.19;5074233;28;19974;-64
2023/06/19 11:44:55;;;;;;;;;;;;;;;22.46;33.57;101784.66;5073974;28;19955;-64
2023/06/19 11:47:20;;;;;;;;;;;;;;;22.54;33.05;101787.09;5055265;28;20015;-66
2023/06/19 11:49:47;;;;;;;;;;;;;;;22.57;33.11;101791.31;5073258;28;20022;-67
2023/06/19 11:52:12;;;;;;;;;;;;;;;22.55;33.56;101777.94;5072857;28;19920;-65
2023/06/19 11:54:38;;;;;;;;;;;;;;;22.50;33.69;101777.75;5054770;28;19943;-66
2023/06/19 11:57:03;;;;;;;;;;;;;;;22.44;33.93;101781.31;5073203;28;20390;-66
2023/06/19 11:59:30;;;;;;;;;;;;;;;22.44;34.46;101769.63;5056198;28;20406;-65
2023/06/19 12:01:57;;;;;;;;;;;;;;;22.46;33.80;101773.78;5074127;28;19920;-66
2023/06/19 12:04:23;;;;;;;;;;;;;;;22.46;34.56;101768.38;5076047;28;19920;-65
2023/06/19 12:06:48;;;;;;;;;;;;;;;22.42;34.25;101758.16;5038516;28;20299;-67
2023/06/19 12:09:14;;;;;;;;;;;;;;;22.38;34.35;101770.50;5072676;28;20284;-70
2023/06/19 12:11:40;;;;;;;;;;;;;;;22.28;35.20;101754.69;5054723;28;19925;-65
2023/06/19 12:14:06;;;;;;;;;;;;;;;22.26;34.56;101762.19;5072621;28;20009;-65
2023/06/19 12:16:31;;;;;;;;;;;;;;;22.26;34.47;101764.91;5072474;28;19962;-66
2023/06/19 12:18:56;;;;;;;;;;;;;;;22.28;34.59;101770.97;5054767;28;19968;-65
2023/06/19 12:21:22;;;;;;;;;;;;;;;22.28;34.78;101764.72;5072173;28;20372;-64
2023/06/19 12:23:47;;;;;;;;;;;;;;;22.26;35.16;101759.47;5054494;28;19921;-67
2023/06/19 12:26:13;;;;;;;;;;;;;;;22.29;34.93;101759.06;5037790;28;20302;-66
2023/06/19 12:28:38;;;;;;;;;;;;;;;22.41;35.87;101751.91;5054611;28;19924;-66
2023/06/19 12:31:04;;;;;;;;;;;;;;;22.42;34.96;101756.28;5072581;28;20355;-64